sensor_id;sensor_type;location;lat;lon;timestamp;P1;durP1;ratioP1;P2;durP2;ratioP2
15915;SDS011;8057;47.830;-3.870;2023-12-20T00:02:58;5.30;;;2.00;;
15915;SDS011;8057;47.830;-3.870;2023-12-20T00:07:26;5.83;;;1.90;;
15915;SDS011;8057;47.830;-3.870;2023-12-20T00:11:53;6.43;;;1.87;;
15915;SDS011;8057;47.830;-3.870;2023-12-20T00:16:22;3.60;;;1.50;;
15915;SDS011;8057;47.830;-3.870;2023-12-20T00:20:50;5.20;;;1.30;;
15915;SDS011;8057;47.830;-3.870;2023-12-20T00:25:18;6.53;;;1.90;;
15915;SDS011;8057;47.830;-3.870;2023-12-20T00:29:46;6.13;;;1.90;;
15915;SDS011;8057;47.830;-3.870;2023-12-20T00:34:16;4.43;;;1.40;;
15915;SDS011;8057;47.830;-3.870;2023-12-20T00:38:44;4.40;;;1.63;;
15915;SDS011;8057;47.830;-3.870;2023-12-20T00:43:12;4.40;;;1.33;;
15915;SDS011;8057;47.830;-3.870;2023-12-20T00:47:39;7.07;;;1.60;;
15915;SDS011;8057;47.830;-3.870;2023-12-20T00:52:09;3.70;;;1.60;;
15915;SDS011;8057;47.830;-3.870;2023-12-20T00:56:37;5.30;;;1.50;;
15915;SDS011;8057;47.830;-3.870;2023-12-20T01:01:05;5.60;;;1.33;;
15915;SDS011;8057;47.830;-3.870;2023-12-20T01:05:33;4.10;;;1.70;;
15915;SDS011;8057;47.830;-3.870;2023-12-20T01:10:02;6.73;;;1.70;;
15915;SDS011;8057;47.830;-3.870;2023-12-20T01:14:30;4.27;;;1.20;;
15915;SDS011;8057;47.830;-3.870;2023-12-20T01:18:58;2.80;;;1.40;;
15915;SDS011;8057;47.830;-3.870;2023-12-20T01:23:26;6.03;;;2.37;;
15915;SDS011;8057;47.830;-3.870;2023-12-20T01:27:55;8.93;;;4.20;;
15915;SDS011;8057;47.830;-3.870;2023-12-20T01:32:22;7.43;;;4.23;;
15915;SDS011;8057;47.830;-3.870;2023-12-20T01:36:50;9.93;;;3.40;;
15915;SDS011;8057;47.830;-3.870;2023-12-20T01:41:17;3.90;;;2.00;;
15915;SDS011;8057;47.830;-3.870;2023-12-20T01:45:47;5.73;;;1.97;;
15915;SDS011;8057;47.830;-3.870;2023-12-20T01:50:16;4.90;;;1.33;;
15915;SDS011;8057;47.830;-3.870;2023-12-20T01:54:44;6.50;;;1.47;;
15915;SDS011;8057;47.830;-3.870;2023-12-20T01:59:12;4.60;;;1.63;;
15915;SDS011;8057;47.830;-3.870;2023-12-20T02:03:41;6.17;;;1.67;;
15915;SDS011;8057;47.830;-3.870;2023-12-20T02:08:09;5.00;;;1.03;;
15915;SDS011;8057;47.830;-3.870;2023-12-20T02:12:37;5.33;;;1.53;;
15915;SDS011;8057;47.830;-3.870;2023-12-20T02:17:04;6.97;;;1.73;;
15915;SDS011;8057;47.830;-3.870;2023-12-20T02:21:33;5.77;;;1.63;;
15915;SDS011;8057;47.830;-3.870;2023-12-20T02:26:01;7.93;;;1.43;;
15915;SDS011;8057;47.830;-3.870;2023-12-20T02:30:31;4.10;;;1.30;;
15915;SDS011;8057;47.830;-3.870;2023-12-20T02:34:59;6.70;;;1.73;;
15915;SDS011;8057;47.830;-3.870;2023-12-20T02:39:28;7.33;;;1.63;;
15915;SDS011;8057;47.830;-3.870;2023-12-20T02:43:57;8.87;;;1.83;;
15915;SDS011;8057;47.830;-3.870;2023-12-20T02:48:24;5.50;;;1.70;;
15915;SDS011;8057;47.830;-3.870;2023-12-20T02:52:52;8.23;;;1.70;;
15915;SDS011;8057;47.830;-3.870;2023-12-20T02:57:21;5.10;;;1.83;;
15915;SDS011;8057;47.830;-3.870;2023-12-20T03:01:49;9.23;;;1.53;;
15915;SDS011;8057;47.830;-3.870;2023-12-20T03:06:17;4.20;;;1.43;;
15915;SDS011;8057;47.830;-3.870;2023-12-20T03:10:45;7.20;;;1.77;;
15915;SDS011;8057;47.830;-3.870;2023-12-20T03:15:15;5.10;;;1.57;;
15915;SDS011;8057;47.830;-3.870;2023-12-20T03:19:42;3.60;;;0.93;;
15915;SDS011;8057;47.830;-3.870;2023-12-20T03:24:10;3.93;;;1.70;;
15915;SDS011;8057;47.830;-3.870;2023-12-20T03:28:38;4.47;;;1.30;;
15915;SDS011;8057;47.830;-3.870;2023-12-20T03:33:07;5.50;;;1.40;;
15915;SDS011;8057;47.830;-3.870;2023-12-20T03:37:35;6.03;;;1.43;;
15915;SDS011;8057;47.830;-3.870;2023-12-20T03:42:03;5.73;;;1.27;;
15915;SDS011;8057;47.830;-3.870;2023-12-20T03:46:30;3.40;;;1.17;;
15915;SDS011;8057;47.830;-3.870;2023-12-20T03:51:00;4.00;;;1.10;;
15915;SDS011;8057;47.830;-3.870;2023-12-20T03:55:28;5.07;;;1.63;;
15915;SDS011;8057;47.830;-3.870;2023-12-20T03:59:55;6.40;;;1.53;;
15915;SDS011;8057;47.830;-3.870;2023-12-20T04:04:23;4.50;;;1.60;;
15915;SDS011;8057;47.830;-3.870;2023-12-20T04:08:52;7.00;;;1.80;;
15915;SDS011;8057;47.830;-3.870;2023-12-20T04:13:20;8.77;;;2.37;;
15915;SDS011;8057;47.830;-3.870;2023-12-20T04:17:48;6.40;;;1.70;;
15915;SDS011;8057;47.830;-3.870;2023-12-20T04:22:17;9.80;;;2.30;;
15915;SDS011;8057;47.830;-3.870;2023-12-20T04:26:46;6.90;;;1.67;;
15915;SDS011;8057;47.830;-3.870;2023-12-20T04:31:14;7.27;;;1.60;;
15915;SDS011;8057;47.830;-3.870;2023-12-20T04:35:41;9.53;;;2.23;;
15915;SDS011;8057;47.830;-3.870;2023-12-20T04:40:11;7.10;;;1.77;;
15915;SDS011;8057;47.830;-3.870;2023-12-20T04:44:40;9.23;;;2.17;;
15915;SDS011;8057;47.830;-3.870;2023-12-20T04:49:09;8.10;;;2.00;;
15915;SDS011;8057;47.830;-3.870;2023-12-20T04:53:37;8.90;;;2.13;;
15915;SDS011;8057;47.830;-3.870;2023-12-20T04:58:05;7.60;;;1.70;;
15915;SDS011;8057;47.830;-3.870;2023-12-20T05:02:34;6.40;;;1.80;;
15915;SDS011;8057;47.830;-3.870;2023-12-20T05:07:02;10.20;;;2.43;;
15915;SDS011;8057;47.830;-3.870;2023-12-20T05:11:31;6.30;;;2.00;;
15915;SDS011;8057;47.830;-3.870;2023-12-20T05:15:58;7.50;;;2.33;;
15915;SDS011;8057;47.830;-3.870;2023-12-20T05:20:27;9.57;;;2.17;;
15915;SDS011;8057;47.830;-3.870;2023-12-20T05:24:55;11.73;;;2.23;;
15915;SDS011;8057;47.830;-3.870;2023-12-20T05:29:23;7.07;;;2.20;;
15915;SDS011;8057;47.830;-3.870;2023-12-20T05:33:51;6.57;;;1.90;;
15915;SDS011;8057;47.830;-3.870;2023-12-20T05:38:20;10.00;;;2.37;;
15915;SDS011;8057;47.830;-3.870;2023-12-20T05:42:47;10.57;;;2.70;;
15915;SDS011;8057;47.830;-3.870;2023-12-20T05:47:15;7.60;;;2.30;;
15915;SDS011;8057;47.830;-3.870;2023-12-20T05:51:43;9.63;;;2.70;;
15915;SDS011;8057;47.830;-3.870;2023-12-20T05:56:12;12.43;;;2.20;;
15915;SDS011;8057;47.830;-3.870;2023-12-20T06:00:39;10.50;;;2.37;;
15915;SDS011;8057;47.830;-3.870;2023-12-20T06:05:07;8.37;;;2.23;;
15915;SDS011;8057;47.830;-3.870;2023-12-20T06:09:35;6.70;;;1.90;;
15915;SDS011;8057;47.830;-3.870;2023-12-20T06:14:05;10.80;;;2.13;;
15915;SDS011;8057;47.830;-3.870;2023-12-20T06:18:33;8.57;;;2.23;;
15915;SDS011;8057;47.830;-3.870;2023-12-20T06:23:02;11.30;;;2.70;;
15915;SDS011;8057;47.830;-3.870;2023-12-20T06:27:30;7.10;;;2.23;;
15915;SDS011;8057;47.830;-3.870;2023-12-20T06:31:59;7.77;;;2.50;;
15915;SDS011;8057;47.830;-3.870;2023-12-20T06:36:27;6.27;;;2.00;;
15915;SDS011;8057;47.830;-3.870;2023-12-20T06:40:54;12.33;;;2.67;;
15915;SDS011;8057;47.830;-3.870;2023-12-20T06:45:23;8.27;;;2.40;;
15915;SDS011;8057;47.830;-3.870;2023-12-20T06:49:53;9.33;;;2.67;;
15915;SDS011;8057;47.830;-3.870;2023-12-20T06:54:21;7.97;;;2.40;;
15915;SDS011;8057;47.830;-3.870;2023-12-20T06:58:48;7.27;;;2.30;;
15915;SDS011;8057;47.830;-3.870;2023-12-20T07:03:16;8.27;;;2.73;;
15915;SDS011;8057;47.830;-3.870;2023-12-20T07:07:45;9.63;;;3.10;;
15915;SDS011;8057;47.830;-3.870;2023-12-20T07:12:13;11.13;;;2.70;;
15915;SDS011;8057;47.830;-3.870;2023-12-20T07:16:41;8.03;;;2.40;;
15915;SDS011;8057;47.830;-3.870;2023-12-20T07:21:09;13.87;;;2.97;;
15915;SDS011;8057;47.830;-3.870;2023-12-20T07:25:38;8.77;;;2.53;;
15915;SDS011;8057;47.830;-3.870;2023-12-20T07:30:06;9.13;;;2.23;;
15915;SDS011;8057;47.830;-3.870;2023-12-20T07:34:35;12.20;;;2.57;;
15915;SDS011;8057;47.830;-3.870;2023-12-20T07:39:03;11.13;;;2.73;;
15915;SDS011;8057;47.830;-3.870;2023-12-20T07:43:32;10.90;;;2.43;;
15915;SDS011;8057;47.830;-3.870;2023-12-20T07:48:00;10.57;;;2.40;;
15915;SDS011;8057;47.830;-3.870;2023-12-20T07:52:27;11.90;;;3.00;;
15915;SDS011;8057;47.830;-3.870;2023-12-20T07:56:56;12.83;;;3.07;;
15915;SDS011;8057;47.830;-3.870;2023-12-20T08:01:25;10.10;;;2.87;;
15915;SDS011;8057;47.830;-3.870;2023-12-20T08:05:53;11.57;;;2.87;;
15915;SDS011;8057;47.830;-3.870;2023-12-20T08:10:22;9.40;;;2.73;;
15915;SDS011;8057;47.830;-3.870;2023-12-20T08:14:50;7.27;;;2.57;;
15915;SDS011;8057;47.830;-3.870;2023-12-20T08:19:20;12.20;;;2.73;;
15915;SDS011;8057;47.830;-3.870;2023-12-20T08:23:47;8.77;;;2.93;;
15915;SDS011;8057;47.830;-3.870;2023-12-20T08:28:15;13.20;;;3.27;;
15915;SDS011;8057;47.830;-3.870;2023-12-20T08:32:43;10.20;;;2.93;;
15915;SDS011;8057;47.830;-3.870;2023-12-20T08:37:12;9.43;;;2.33;;
15915;SDS011;8057;47.830;-3.870;2023-12-20T08:41:40;11.73;;;2.33;;
15915;SDS011;8057;47.830;-3.870;2023-12-20T08:46:08;13.57;;;2.70;;
15915;SDS011;8057;47.830;-3.870;2023-12-20T08:50:36;9.77;;;2.43;;
15915;SDS011;8057;47.830;-3.870;2023-12-20T08:55:07;9.67;;;3.00;;
15915;SDS011;8057;47.830;-3.870;2023-12-20T08:59:35;14.20;;;2.60;;
15915;SDS011;8057;47.830;-3.870;2023-12-20T09:04:03;12.87;;;2.90;;
15915;SDS011;8057;47.830;-3.870;2023-12-20T09:08:32;11.47;;;2.70;;
15915;SDS011;8057;47.830;-3.870;2023-12-20T09:13:01;10.77;;;2.77;;
15915;SDS011;8057;47.830;-3.870;2023-12-20T09:17:29;8.03;;;2.27;;
15915;SDS011;8057;47.830;-3.870;2023-12-20T09:21:58;11.47;;;2.80;;
15915;SDS011;8057;47.830;-3.870;2023-12-20T09:26:26;9.33;;;2.50;;
15915;SDS011;8057;47.830;-3.870;2023-12-20T09:30:55;9.00;;;2.63;;
15915;SDS011;8057;47.830;-3.870;2023-12-20T09:35:23;13.30;;;3.40;;
15915;SDS011;8057;47.830;-3.870;2023-12-20T09:39:52;10.20;;;2.67;;
15915;SDS011;8057;47.830;-3.870;2023-12-20T09:44:20;10.07;;;2.60;;
15915;SDS011;8057;47.830;-3.870;2023-12-20T09:48:51;8.10;;;1.80;;
15915;SDS011;8057;47.830;-3.870;2023-12-20T09:53:19;10.00;;;2.60;;
15915;SDS011;8057;47.830;-3.870;2023-12-20T09:57:49;6.73;;;1.93;;
15915;SDS011;8057;47.830;-3.870;2023-12-20T10:02:17;8.67;;;2.57;;
15915;SDS011;8057;47.830;-3.870;2023-12-20T10:06:53;7.67;;;2.47;;
15915;SDS011;8057;47.830;-3.870;2023-12-20T10:11:22;11.40;;;2.43;;
15915;SDS011;8057;47.830;-3.870;2023-12-20T10:15:50;9.07;;;2.33;;
15915;SDS011;8057;47.830;-3.870;2023-12-20T10:20:18;8.47;;;2.33;;
15915;SDS011;8057;47.830;-3.870;2023-12-20T10:24:47;9.90;;;2.27;;
15915;SDS011;8057;47.830;-3.870;2023-12-20T10:29:15;8.67;;;2.97;;
15915;SDS011;8057;47.830;-3.870;2023-12-20T10:33:44;10.87;;;2.50;;
15915;SDS011;8057;47.830;-3.870;2023-12-20T10:38:11;10.00;;;2.73;;
15915;SDS011;8057;47.830;-3.870;2023-12-20T10:42:43;8.57;;;2.10;;
15915;SDS011;8057;47.830;-3.870;2023-12-20T10:47:11;8.47;;;2.50;;
15915;SDS011;8057;47.830;-3.870;2023-12-20T10:51:41;9.77;;;2.60;;
15915;SDS011;8057;47.830;-3.870;2023-12-20T10:56:09;7.23;;;2.07;;
15915;SDS011;8057;47.830;-3.870;2023-12-20T11:00:44;9.33;;;2.37;;
15915;SDS011;8057;47.830;-3.870;2023-12-20T11:05:18;10.33;;;2.27;;
15915;SDS011;8057;47.830;-3.870;2023-12-20T11:09:54;10.23;;;2.67;;
15915;SDS011;8057;47.830;-3.870;2023-12-20T11:14:27;9.07;;;2.23;;
15915;SDS011;8057;47.830;-3.870;2023-12-20T11:19:05;7.37;;;2.13;;
15915;SDS011;8057;47.830;-3.870;2023-12-20T11:23:34;9.63;;;2.43;;
15915;SDS011;8057;47.830;-3.870;2023-12-20T11:28:08;10.07;;;3.17;;
15915;SDS011;8057;47.830;-3.870;2023-12-20T11:32:37;7.30;;;1.77;;
15915;SDS011;8057;47.830;-3.870;2023-12-20T11:37:09;7.50;;;1.73;;
15915;SDS011;8057;47.830;-3.870;2023-12-20T11:41:37;6.13;;;1.67;;
15915;SDS011;8057;47.830;-3.870;2023-12-20T11:46:05;8.33;;;2.37;;
15915;SDS011;8057;47.830;-3.870;2023-12-20T11:50:34;6.80;;;1.77;;
15915;SDS011;8057;47.830;-3.870;2023-12-20T11:55:04;5.80;;;1.40;;
15915;SDS011;8057;47.830;-3.870;2023-12-20T11:59:32;5.63;;;1.50;;
15915;SDS011;8057;47.830;-3.870;2023-12-20T12:04:03;5.23;;;2.30;;
15915;SDS011;8057;47.830;-3.870;2023-12-20T12:08:31;4.20;;;1.40;;
15915;SDS011;8057;47.830;-3.870;2023-12-20T12:13:00;2.80;;;1.30;;
15915;SDS011;8057;47.830;-3.870;2023-12-20T12:17:28;3.10;;;1.00;;
15915;SDS011;8057;47.830;-3.870;2023-12-20T12:22:05;3.77;;;1.60;;
15915;SDS011;8057;47.830;-3.870;2023-12-20T12:26:38;7.17;;;1.50;;
15915;SDS011;8057;47.830;-3.870;2023-12-20T12:31:08;4.67;;;1.53;;
15915;SDS011;8057;47.830;-3.870;2023-12-20T12:35:40;5.23;;;1.60;;
15915;SDS011;8057;47.830;-3.870;2023-12-20T12:40:09;6.63;;;1.77;;
15915;SDS011;8057;47.830;-3.870;2023-12-20T12:44:39;6.43;;;1.63;;
15915;SDS011;8057;47.830;-3.870;2023-12-20T12:49:08;5.43;;;1.50;;
15915;SDS011;8057;47.830;-3.870;2023-12-20T12:53:36;5.17;;;1.90;;
15915;SDS011;8057;47.830;-3.870;2023-12-20T12:58:03;7.43;;;1.80;;
15915;SDS011;8057;47.830;-3.870;2023-12-20T13:02:31;4.30;;;1.30;;
15915;SDS011;8057;47.830;-3.870;2023-12-20T13:07:01;6.60;;;1.70;;
15915;SDS011;8057;47.830;-3.870;2023-12-20T13:11:29;8.13;;;2.20;;
15915;SDS011;8057;47.830;-3.870;2023-12-20T13:15:57;8.43;;;2.00;;
15915;SDS011;8057;47.830;-3.870;2023-12-20T13:20:26;5.57;;;1.80;;
15915;SDS011;8057;47.830;-3.870;2023-12-20T13:24:55;6.03;;;1.97;;
15915;SDS011;8057;47.830;-3.870;2023-12-20T13:29:23;4.50;;;1.77;;
15915;SDS011;8057;47.830;-3.870;2023-12-20T13:33:53;4.70;;;1.30;;
15915;SDS011;8057;47.830;-3.870;2023-12-20T13:38:21;4.27;;;1.47;;
15915;SDS011;8057;47.830;-3.870;2023-12-20T13:42:50;5.80;;;1.73;;
15915;SDS011;8057;47.830;-3.870;2023-12-20T13:47:18;3.40;;;1.47;;
15915;SDS011;8057;47.830;-3.870;2023-12-20T13:51:49;11.30;;;1.80;;
15915;SDS011;8057;47.830;-3.870;2023-12-20T13:56:16;6.20;;;1.37;;
15915;SDS011;8057;47.830;-3.870;2023-12-20T14:00:47;4.43;;;1.40;;
15915;SDS011;8057;47.830;-3.870;2023-12-20T14:05:14;6.77;;;1.70;;
15915;SDS011;8057;47.830;-3.870;2023-12-20T14:09:43;5.97;;;1.60;;
15915;SDS011;8057;47.830;-3.870;2023-12-20T14:14:12;4.47;;;1.60;;
15915;SDS011;8057;47.830;-3.870;2023-12-20T14:18:41;4.73;;;1.03;;
15915;SDS011;8057;47.830;-3.870;2023-12-20T14:23:09;5.30;;;1.00;;
15915;SDS011;8057;47.830;-3.870;2023-12-20T14:27:36;3.33;;;1.20;;
15915;SDS011;8057;47.830;-3.870;2023-12-20T14:32:05;5.70;;;1.47;;
15915;SDS011;8057;47.830;-3.870;2023-12-20T14:36:34;3.80;;;1.17;;
15915;SDS011;8057;47.830;-3.870;2023-12-20T14:41:03;3.80;;;0.93;;
15915;SDS011;8057;47.830;-3.870;2023-12-20T14:45:34;2.47;;;1.00;;
15915;SDS011;8057;47.830;-3.870;2023-12-20T14:50:02;5.83;;;2.00;;
15915;SDS011;8057;47.830;-3.870;2023-12-20T14:54:32;4.80;;;1.90;;
15915;SDS011;8057;47.830;-3.870;2023-12-20T14:59:01;5.50;;;2.20;;
15915;SDS011;8057;47.830;-3.870;2023-12-20T15:03:28;5.53;;;2.10;;
15915;SDS011;8057;47.830;-3.870;2023-12-20T15:07:56;3.03;;;1.73;;
15915;SDS011;8057;47.830;-3.870;2023-12-20T15:12:25;3.63;;;1.60;;
15915;SDS011;8057;47.830;-3.870;2023-12-20T15:16:53;3.97;;;1.77;;
15915;SDS011;8057;47.830;-3.870;2023-12-20T15:21:21;3.30;;;1.40;;
15915;SDS011;8057;47.830;-3.870;2023-12-20T15:25:57;5.10;;;1.63;;
15915;SDS011;8057;47.830;-3.870;2023-12-20T15:30:26;3.90;;;1.50;;
15915;SDS011;8057;47.830;-3.870;2023-12-20T15:34:55;5.97;;;1.53;;
15915;SDS011;8057;47.830;-3.870;2023-12-20T15:39:23;4.23;;;1.37;;
15915;SDS011;8057;47.830;-3.870;2023-12-20T15:43:51;4.23;;;1.30;;
15915;SDS011;8057;47.830;-3.870;2023-12-20T15:48:20;5.27;;;1.90;;
15915;SDS011;8057;47.830;-3.870;2023-12-20T15:52:53;3.73;;;1.23;;
15915;SDS011;8057;47.830;-3.870;2023-12-20T15:57:21;3.50;;;1.23;;
15915;SDS011;8057;47.830;-3.870;2023-12-20T16:01:49;2.50;;;1.30;;
15915;SDS011;8057;47.830;-3.870;2023-12-20T16:06:20;5.80;;;1.83;;
15915;SDS011;8057;47.830;-3.870;2023-12-20T16:10:48;4.30;;;1.90;;
15915;SDS011;8057;47.830;-3.870;2023-12-20T16:15:15;7.03;;;2.00;;
15915;SDS011;8057;47.830;-3.870;2023-12-20T16:19:44;4.13;;;1.73;;
15915;SDS011;8057;47.830;-3.870;2023-12-20T16:24:13;3.60;;;1.60;;
15915;SDS011;8057;47.830;-3.870;2023-12-20T16:28:41;3.47;;;1.40;;
15915;SDS011;8057;47.830;-3.870;2023-12-20T16:33:09;4.90;;;2.20;;
15915;SDS011;8057;47.830;-3.870;2023-12-20T16:37:37;4.13;;;1.90;;
15915;SDS011;8057;47.830;-3.870;2023-12-20T16:42:06;5.70;;;2.00;;
15915;SDS011;8057;47.830;-3.870;2023-12-20T16:46:34;4.40;;;1.80;;
15915;SDS011;8057;47.830;-3.870;2023-12-20T16:51:01;6.20;;;1.57;;
15915;SDS011;8057;47.830;-3.870;2023-12-20T16:55:29;4.03;;;1.10;;
15915;SDS011;8057;47.830;-3.870;2023-12-20T16:59:58;3.40;;;1.03;;
15915;SDS011;8057;47.830;-3.870;2023-12-20T17:04:26;4.83;;;1.50;;
15915;SDS011;8057;47.830;-3.870;2023-12-20T17:08:53;3.50;;;1.30;;
15915;SDS011;8057;47.830;-3.870;2023-12-20T17:13:21;24.50;;;15.07;;
15915;SDS011;8057;47.830;-3.870;2023-12-20T17:17:50;31.70;;;22.10;;
15915;SDS011;8057;47.830;-3.870;2023-12-20T17:22:18;10.67;;;7.70;;
15915;SDS011;8057;47.830;-3.870;2023-12-20T17:26:46;11.43;;;7.80;;
15915;SDS011;8057;47.830;-3.870;2023-12-20T17:31:13;14.23;;;10.63;;
15915;SDS011;8057;47.830;-3.870;2023-12-20T17:35:42;8.47;;;3.90;;
15915;SDS011;8057;47.830;-3.870;2023-12-20T17:40:12;12.33;;;6.07;;
15915;SDS011;8057;47.830;-3.870;2023-12-20T17:44:40;8.40;;;3.50;;
15915;SDS011;8057;47.830;-3.870;2023-12-20T17:49:08;15.90;;;6.60;;
15915;SDS011;8057;47.830;-3.870;2023-12-20T17:53:37;11.10;;;5.80;;
15915;SDS011;8057;47.830;-3.870;2023-12-20T17:58:04;15.23;;;5.83;;
15915;SDS011;8057;47.830;-3.870;2023-12-20T18:02:33;13.00;;;6.37;;
15915;SDS011;8057;47.830;-3.870;2023-12-20T18:07:00;12.07;;;4.17;;
15915;SDS011;8057;47.830;-3.870;2023-12-20T18:11:29;11.07;;;4.10;;
15915;SDS011;8057;47.830;-3.870;2023-12-20T18:15:57;12.97;;;4.23;;
15915;SDS011;8057;47.830;-3.870;2023-12-20T18:20:24;10.03;;;5.63;;
15915;SDS011;8057;47.830;-3.870;2023-12-20T18:24:52;11.57;;;3.80;;
15915;SDS011;8057;47.830;-3.870;2023-12-20T18:29:22;12.33;;;3.43;;
15915;SDS011;8057;47.830;-3.870;2023-12-20T18:33:50;21.90;;;7.90;;
15915;SDS011;8057;47.830;-3.870;2023-12-20T18:38:18;17.50;;;6.63;;
15915;SDS011;8057;47.830;-3.870;2023-12-20T18:42:47;19.77;;;9.43;;
15915;SDS011;8057;47.830;-3.870;2023-12-20T18:47:16;18.03;;;7.57;;
15915;SDS011;8057;47.830;-3.870;2023-12-20T18:51:43;11.70;;;3.73;;
15915;SDS011;8057;47.830;-3.870;2023-12-20T18:56:11;14.57;;;5.97;;
15915;SDS011;8057;47.830;-3.870;2023-12-20T19:00:38;13.87;;;4.87;;
15915;SDS011;8057;47.830;-3.870;2023-12-20T19:05:08;18.43;;;5.50;;
15915;SDS011;8057;47.830;-3.870;2023-12-20T19:09:38;15.77;;;6.57;;
15915;SDS011;8057;47.830;-3.870;2023-12-20T19:14:06;13.50;;;4.07;;
15915;SDS011;8057;47.830;-3.870;2023-12-20T19:18:36;19.20;;;5.50;;
15915;SDS011;8057;47.830;-3.870;2023-12-20T19:23:06;15.37;;;4.83;;
15915;SDS011;8057;47.830;-3.870;2023-12-20T19:27:36;16.90;;;4.57;;
15915;SDS011;8057;47.830;-3.870;2023-12-20T19:32:03;16.87;;;4.37;;
15915;SDS011;8057;47.830;-3.870;2023-12-20T19:36:32;14.47;;;4.20;;
15915;SDS011;8057;47.830;-3.870;2023-12-20T19:41:01;19.77;;;5.37;;
15915;SDS011;8057;47.830;-3.870;2023-12-20T19:45:29;16.53;;;6.23;;
15915;SDS011;8057;47.830;-3.870;2023-12-20T19:49:56;14.17;;;6.20;;
15915;SDS011;8057;47.830;-3.870;2023-12-20T19:54:24;12.97;;;5.40;;
15915;SDS011;8057;47.830;-3.870;2023-12-20T19:58:53;14.63;;;4.97;;
15915;SDS011;8057;47.830;-3.870;2023-12-20T20:03:21;18.20;;;5.20;;
15915;SDS011;8057;47.830;-3.870;2023-12-20T20:07:48;17.33;;;5.87;;
15915;SDS011;8057;47.830;-3.870;2023-12-20T20:12:16;20.90;;;6.57;;
15915;SDS011;8057;47.830;-3.870;2023-12-20T20:16:45;22.23;;;6.73;;
15915;SDS011;8057;47.830;-3.870;2023-12-20T20:21:15;25.53;;;7.10;;
15915;SDS011;8057;47.830;-3.870;2023-12-20T20:25:42;23.50;;;8.60;;
15915;SDS011;8057;47.830;-3.870;2023-12-20T20:30:10;25.33;;;6.47;;
15915;SDS011;8057;47.830;-3.870;2023-12-20T20:34:40;19.47;;;7.20;;
15915;SDS011;8057;47.830;-3.870;2023-12-20T20:39:08;24.13;;;7.20;;
15915;SDS011;8057;47.830;-3.870;2023-12-20T20:43:37;24.97;;;7.43;;
15915;SDS011;8057;47.830;-3.870;2023-12-20T20:48:06;30.93;;;8.77;;
15915;SDS011;8057;47.830;-3.870;2023-12-20T20:52:53;24.77;;;6.73;;
15915;SDS011;8057;47.830;-3.870;2023-12-20T20:57:20;20.93;;;6.70;;
15915;SDS011;8057;47.830;-3.870;2023-12-20T21:01:48;26.57;;;7.30;;
15915;SDS011;8057;47.830;-3.870;2023-12-20T21:06:15;24.13;;;8.20;;
15915;SDS011;8057;47.830;-3.870;2023-12-20T21:10:46;27.30;;;7.57;;
15915;SDS011;8057;47.830;-3.870;2023-12-20T21:15:14;20.80;;;6.53;;
15915;SDS011;8057;47.830;-3.870;2023-12-20T21:19:42;21.10;;;6.10;;
15915;SDS011;8057;47.830;-3.870;2023-12-20T21:24:11;23.97;;;5.63;;
15915;SDS011;8057;47.830;-3.870;2023-12-20T21:28:41;17.07;;;4.97;;
15915;SDS011;8057;47.830;-3.870;2023-12-20T21:33:09;23.07;;;5.43;;
15915;SDS011;8057;47.830;-3.870;2023-12-20T21:37:37;22.07;;;5.70;;
15915;SDS011;8057;47.830;-3.870;2023-12-20T21:42:06;14.10;;;5.67;;
15915;SDS011;8057;47.830;-3.870;2023-12-20T21:46:36;16.47;;;4.77;;
15915;SDS011;8057;47.830;-3.870;2023-12-20T21:51:06;13.47;;;4.30;;
15915;SDS011;8057;47.830;-3.870;2023-12-20T21:55:35;16.43;;;4.00;;
15915;SDS011;8057;47.830;-3.870;2023-12-20T22:00:03;14.50;;;4.27;;
15915;SDS011;8057;47.830;-3.870;2023-12-20T22:04:34;13.57;;;4.20;;
15915;SDS011;8057;47.830;-3.870;2023-12-20T22:09:02;13.27;;;3.93;;
15915;SDS011;8057;47.830;-3.870;2023-12-20T22:13:30;13.20;;;3.77;;
15915;SDS011;8057;47.830;-3.870;2023-12-20T22:17:58;17.50;;;3.97;;
15915;SDS011;8057;47.830;-3.870;2023-12-20T22:22:28;12.67;;;3.90;;
15915;SDS011;8057;47.830;-3.870;2023-12-20T22:26:56;17.57;;;3.93;;
15915;SDS011;8057;47.830;-3.870;2023-12-20T22:31:26;11.30;;;3.20;;
15915;SDS011;8057;47.830;-3.870;2023-12-20T22:35:54;10.93;;;3.37;;
15915;SDS011;8057;47.830;-3.870;2023-12-20T22:40:23;11.20;;;2.77;;
15915;SDS011;8057;47.830;-3.870;2023-12-20T22:44:51;11.97;;;3.03;;
15915;SDS011;8057;47.830;-3.870;2023-12-20T22:49:20;10.90;;;4.07;;
15915;SDS011;8057;47.830;-3.870;2023-12-20T22:53:48;9.23;;;3.30;;
15915;SDS011;8057;47.830;-3.870;2023-12-20T22:58:18;11.97;;;3.57;;
15915;SDS011;8057;47.830;-3.870;2023-12-20T23:02:46;10.37;;;2.60;;
15915;SDS011;8057;47.830;-3.870;2023-12-20T23:07:14;7.50;;;2.77;;
15915;SDS011;8057;47.830;-3.870;2023-12-20T23:11:42;8.97;;;2.97;;
15915;SDS011;8057;47.830;-3.870;2023-12-20T23:16:14;7.83;;;2.63;;
15915;SDS011;8057;47.830;-3.870;2023-12-20T23:20:43;12.33;;;3.33;;
15915;SDS011;8057;47.830;-3.870;2023-12-20T23:25:12;10.80;;;2.90;;
15915;SDS011;8057;47.830;-3.870;2023-12-20T23:29:40;12.70;;;2.73;;
15915;SDS011;8057;47.830;-3.870;2023-12-20T23:34:09;12.37;;;2.77;;
15915;SDS011;8057;47.830;-3.870;2023-12-20T23:38:39;12.13;;;2.90;;
15915;SDS011;8057;47.830;-3.870;2023-12-20T23:43:07;10.60;;;2.40;;
15915;SDS011;8057;47.830;-3.870;2023-12-20T23:47:35;8.20;;;2.27;;
15915;SDS011;8057;47.830;-3.870;2023-12-20T23:52:04;9.63;;;2.43;;
15915;SDS011;8057;47.830;-3.870;2023-12-20T23:56:35;7.00;;;2.20;;
